SAAP/PRA METAR and TAF weather

Enter ICAO airport designator
Station Type Date Time Source
SAAP METAR 2019/06/17 09:26 UTC NOAA

SAAP 170926Z 14003KT 8000 -DZ SCT007 BKN010 11/10 Q1021


Station Type Date Time Source
SAAP Decoded METAR 2019/06/17 09:26 UTC NOAA

Parana Aerodrome, Argentina (SAAP) 31-47S 060-29W 78M
Jun 17, 2019 - 05:26 AM EDT / 2019.06.17 0926 UTC
Wind: from the SE (140 degrees) at 3 MPH (3 KT):0
Visibility: 4 mile(s):0
Sky conditions: mostly cloudy
Weather: light drizzle
Temperature: 51 F (11 C)
Dew Point: 50 F (10 C)
Relative Humidity: 93%
Pressure (altimeter): 30.15 in. Hg (1021 hPa)
ob: SAAP 170926Z 14003KT 8000 -DZ SCT007 BKN010 11/10 Q1021
cycle: 9

Station Type Date Time Source
SAAP TAF 2019/05/26 00:42 UTC NOAA

TAF TAF SAAP 262300Z 2700/2724 02005KT 7000 NSC TX20/2718Z TN11/2710Z
BECMG 2706/2708 VRB03KT 3000 BR BKN015 PROB30 2708/2712 0900 FG
BECMG 2713/2715 11005KT CAVOK

Example: see airport list